sensor_id;sensor_type;location;lat;lon;timestamp;P1;durP1;ratioP1;P2;durP2;ratioP2
20814;SDS011;10568;48.176;16.316;2023-12-20T00:02:21;20.27;;;10.93;;
20814;SDS011;10568;48.176;16.316;2023-12-20T00:04:47;20.00;;;10.20;;
20814;SDS011;10568;48.176;16.316;2023-12-20T00:07:13;19.13;;;10.90;;
20814;SDS011;10568;48.176;16.316;2023-12-20T00:09:38;19.47;;;11.53;;
20814;SDS011;10568;48.176;16.316;2023-12-20T00:12:04;19.63;;;11.07;;
20814;SDS011;10568;48.176;16.316;2023-12-20T00:14:30;21.30;;;11.00;;
20814;SDS011;10568;48.176;16.316;2023-12-20T00:16:55;17.70;;;9.17;;
20814;SDS011;10568;48.176;16.316;2023-12-20T00:19:21;21.93;;;11.00;;
20814;SDS011;10568;48.176;16.316;2023-12-20T00:21:47;18.60;;;10.53;;
20814;SDS011;10568;48.176;16.316;2023-12-20T00:24:12;16.80;;;10.10;;
20814;SDS011;10568;48.176;16.316;2023-12-20T00:26:38;19.10;;;11.10;;
20814;SDS011;10568;48.176;16.316;2023-12-20T00:29:04;17.27;;;9.90;;
20814;SDS011;10568;48.176;16.316;2023-12-20T00:31:29;15.83;;;9.63;;
20814;SDS011;10568;48.176;16.316;2023-12-20T00:33:55;18.67;;;11.17;;
20814;SDS011;10568;48.176;16.316;2023-12-20T00:36:21;18.43;;;10.23;;
20814;SDS011;10568;48.176;16.316;2023-12-20T00:38:47;16.83;;;9.73;;
20814;SDS011;10568;48.176;16.316;2023-12-20T00:41:15;18.37;;;10.73;;
20814;SDS011;10568;48.176;16.316;2023-12-20T00:43:40;19.37;;;9.87;;
20814;SDS011;10568;48.176;16.316;2023-12-20T00:46:06;16.73;;;10.00;;
20814;SDS011;10568;48.176;16.316;2023-12-20T00:48:32;20.27;;;10.93;;
20814;SDS011;10568;48.176;16.316;2023-12-20T00:50:57;16.50;;;9.90;;
20814;SDS011;10568;48.176;16.316;2023-12-20T00:53:23;17.10;;;10.07;;
20814;SDS011;10568;48.176;16.316;2023-12-20T00:55:48;25.33;;;13.13;;
20814;SDS011;10568;48.176;16.316;2023-12-20T00:58:15;24.40;;;13.60;;
20814;SDS011;10568;48.176;16.316;2023-12-20T01:00:41;20.23;;;11.37;;
20814;SDS011;10568;48.176;16.316;2023-12-20T01:03:08;18.60;;;11.23;;
20814;SDS011;10568;48.176;16.316;2023-12-20T01:05:33;18.23;;;10.40;;
20814;SDS011;10568;48.176;16.316;2023-12-20T01:07:59;21.63;;;11.27;;
20814;SDS011;10568;48.176;16.316;2023-12-20T01:13:24;17.03;;;10.07;;
20814;SDS011;10568;48.176;16.316;2023-12-20T01:15:50;18.20;;;10.37;;
20814;SDS011;10568;48.176;16.316;2023-12-20T01:18:15;16.93;;;9.77;;
20814;SDS011;10568;48.176;16.316;2023-12-20T01:20:41;18.20;;;10.33;;
20814;SDS011;10568;48.176;16.316;2023-12-20T01:23:07;20.60;;;11.03;;
20814;SDS011;10568;48.176;16.316;2023-12-20T01:25:33;14.20;;;9.20;;
20814;SDS011;10568;48.176;16.316;2023-12-20T01:27:59;15.77;;;9.43;;
20814;SDS011;10568;48.176;16.316;2023-12-20T01:30:34;18.50;;;9.90;;
20814;SDS011;10568;48.176;16.316;2023-12-20T01:33:00;18.57;;;9.47;;
20814;SDS011;10568;48.176;16.316;2023-12-20T01:35:26;17.27;;;10.10;;
20814;SDS011;10568;48.176;16.316;2023-12-20T01:37:52;19.27;;;10.03;;
20814;SDS011;10568;48.176;16.316;2023-12-20T01:40:22;17.03;;;9.73;;
20814;SDS011;10568;48.176;16.316;2023-12-20T01:43:01;18.43;;;9.57;;
20814;SDS011;10568;48.176;16.316;2023-12-20T01:45:30;18.30;;;10.20;;
20814;SDS011;10568;48.176;16.316;2023-12-20T01:47:57;19.03;;;9.87;;
20814;SDS011;10568;48.176;16.316;2023-12-20T01:50:23;20.20;;;10.17;;
20814;SDS011;10568;48.176;16.316;2023-12-20T01:52:49;16.60;;;9.43;;
20814;SDS011;10568;48.176;16.316;2023-12-20T01:55:18;15.07;;;9.77;;
20814;SDS011;10568;48.176;16.316;2023-12-20T01:57:45;18.27;;;9.97;;
20814;SDS011;10568;48.176;16.316;2023-12-20T02:00:12;19.73;;;10.60;;
20814;SDS011;10568;48.176;16.316;2023-12-20T02:02:40;14.03;;;8.70;;
20814;SDS011;10568;48.176;16.316;2023-12-20T02:05:06;16.40;;;8.63;;
20814;SDS011;10568;48.176;16.316;2023-12-20T02:07:33;17.50;;;8.83;;
20814;SDS011;10568;48.176;16.316;2023-12-20T02:10:03;14.33;;;8.87;;
20814;SDS011;10568;48.176;16.316;2023-12-20T02:12:41;14.20;;;8.77;;
20814;SDS011;10568;48.176;16.316;2023-12-20T02:15:07;15.87;;;8.93;;
20814;SDS011;10568;48.176;16.316;2023-12-20T02:17:33;12.97;;;8.23;;
20814;SDS011;10568;48.176;16.316;2023-12-20T02:19:59;14.73;;;8.90;;
20814;SDS011;10568;48.176;16.316;2023-12-20T02:22:25;14.53;;;8.27;;
20814;SDS011;10568;48.176;16.316;2023-12-20T02:24:50;16.90;;;9.63;;
20814;SDS011;10568;48.176;16.316;2023-12-20T02:27:17;13.07;;;7.30;;
20814;SDS011;10568;48.176;16.316;2023-12-20T02:29:44;15.93;;;8.50;;
20814;SDS011;10568;48.176;16.316;2023-12-20T02:32:13;14.60;;;8.33;;
20814;SDS011;10568;48.176;16.316;2023-12-20T02:34:38;12.40;;;7.37;;
20814;SDS011;10568;48.176;16.316;2023-12-20T02:37:04;14.20;;;7.93;;
20814;SDS011;10568;48.176;16.316;2023-12-20T02:39:30;11.30;;;7.07;;
20814;SDS011;10568;48.176;16.316;2023-12-20T02:41:55;13.53;;;7.53;;
20814;SDS011;10568;48.176;16.316;2023-12-20T02:44:21;12.40;;;8.73;;
20814;SDS011;10568;48.176;16.316;2023-12-20T02:46:47;11.77;;;6.77;;
20814;SDS011;10568;48.176;16.316;2023-12-20T02:49:12;15.73;;;7.60;;
20814;SDS011;10568;48.176;16.316;2023-12-20T02:51:38;15.10;;;7.50;;
20814;SDS011;10568;48.176;16.316;2023-12-20T02:54:04;15.43;;;8.40;;
20814;SDS011;10568;48.176;16.316;2023-12-20T02:56:30;15.67;;;8.17;;
20814;SDS011;10568;48.176;16.316;2023-12-20T02:58:57;13.80;;;7.83;;
20814;SDS011;10568;48.176;16.316;2023-12-20T03:01:23;15.27;;;9.10;;
20814;SDS011;10568;48.176;16.316;2023-12-20T03:03:48;12.47;;;8.07;;
20814;SDS011;10568;48.176;16.316;2023-12-20T03:06:20;15.87;;;8.63;;
20814;SDS011;10568;48.176;16.316;2023-12-20T03:08:46;14.23;;;7.67;;
20814;SDS011;10568;48.176;16.316;2023-12-20T03:11:12;11.10;;;7.37;;
20814;SDS011;10568;48.176;16.316;2023-12-20T03:13:37;12.37;;;7.63;;
20814;SDS011;10568;48.176;16.316;2023-12-20T03:16:10;12.43;;;7.80;;
20814;SDS011;10568;48.176;16.316;2023-12-20T03:18:36;13.50;;;7.50;;
20814;SDS011;10568;48.176;16.316;2023-12-20T03:21:02;13.20;;;7.23;;
20814;SDS011;10568;48.176;16.316;2023-12-20T03:23:29;10.53;;;6.87;;
20814;SDS011;10568;48.176;16.316;2023-12-20T03:25:55;14.67;;;7.40;;
20814;SDS011;10568;48.176;16.316;2023-12-20T03:28:21;12.40;;;7.87;;
20814;SDS011;10568;48.176;16.316;2023-12-20T03:30:48;15.73;;;8.87;;
20814;SDS011;10568;48.176;16.316;2023-12-20T03:33:14;11.40;;;7.03;;
20814;SDS011;10568;48.176;16.316;2023-12-20T03:35:39;12.57;;;7.30;;
20814;SDS011;10568;48.176;16.316;2023-12-20T03:38:05;11.73;;;7.10;;
20814;SDS011;10568;48.176;16.316;2023-12-20T03:40:31;13.33;;;7.27;;
20814;SDS011;10568;48.176;16.316;2023-12-20T03:42:56;15.47;;;7.70;;
20814;SDS011;10568;48.176;16.316;2023-12-20T03:45:22;9.40;;;7.10;;
20814;SDS011;10568;48.176;16.316;2023-12-20T03:47:47;11.17;;;6.57;;
20814;SDS011;10568;48.176;16.316;2023-12-20T03:50:13;11.50;;;6.37;;
20814;SDS011;10568;48.176;16.316;2023-12-20T03:52:39;10.83;;;7.60;;
20814;SDS011;10568;48.176;16.316;2023-12-20T03:55:05;13.27;;;7.27;;
20814;SDS011;10568;48.176;16.316;2023-12-20T03:57:31;11.63;;;7.27;;
20814;SDS011;10568;48.176;16.316;2023-12-20T03:59:56;11.60;;;7.10;;
20814;SDS011;10568;48.176;16.316;2023-12-20T04:02:22;12.53;;;7.23;;
20814;SDS011;10568;48.176;16.316;2023-12-20T04:04:48;9.27;;;6.80;;
20814;SDS011;10568;48.176;16.316;2023-12-20T04:07:14;10.17;;;7.20;;
20814;SDS011;10568;48.176;16.316;2023-12-20T04:09:40;12.07;;;7.87;;
20814;SDS011;10568;48.176;16.316;2023-12-20T04:12:07;12.67;;;6.97;;
20814;SDS011;10568;48.176;16.316;2023-12-20T04:17:34;10.33;;;6.37;;
20814;SDS011;10568;48.176;16.316;2023-12-20T04:20:01;12.47;;;7.70;;
20814;SDS011;10568;48.176;16.316;2023-12-20T04:22:28;14.93;;;7.97;;
20814;SDS011;10568;48.176;16.316;2023-12-20T04:24:53;10.97;;;7.17;;
20814;SDS011;10568;48.176;16.316;2023-12-20T04:27:19;14.40;;;7.83;;
20814;SDS011;10568;48.176;16.316;2023-12-20T04:29:45;14.87;;;7.80;;
20814;SDS011;10568;48.176;16.316;2023-12-20T04:32:11;12.93;;;7.57;;
20814;SDS011;10568;48.176;16.316;2023-12-20T04:34:37;11.67;;;7.43;;
20814;SDS011;10568;48.176;16.316;2023-12-20T04:37:03;11.40;;;6.80;;
20814;SDS011;10568;48.176;16.316;2023-12-20T04:39:28;9.53;;;6.80;;
20814;SDS011;10568;48.176;16.316;2023-12-20T04:41:54;12.43;;;7.23;;
20814;SDS011;10568;48.176;16.316;2023-12-20T04:44:20;11.87;;;7.17;;
20814;SDS011;10568;48.176;16.316;2023-12-20T04:46:45;9.67;;;6.43;;
20814;SDS011;10568;48.176;16.316;2023-12-20T04:49:11;14.97;;;7.47;;
20814;SDS011;10568;48.176;16.316;2023-12-20T04:51:37;8.90;;;5.33;;
20814;SDS011;10568;48.176;16.316;2023-12-20T04:54:03;9.97;;;5.30;;
20814;SDS011;10568;48.176;16.316;2023-12-20T04:56:29;7.20;;;5.73;;
20814;SDS011;10568;48.176;16.316;2023-12-20T04:58:54;8.47;;;4.93;;
20814;SDS011;10568;48.176;16.316;2023-12-20T05:01:20;5.97;;;3.57;;
20814;SDS011;10568;48.176;16.316;2023-12-20T05:03:46;4.77;;;2.67;;
20814;SDS011;10568;48.176;16.316;2023-12-20T05:06:12;3.83;;;2.77;;
20814;SDS011;10568;48.176;16.316;2023-12-20T05:08:38;4.00;;;2.53;;
20814;SDS011;10568;48.176;16.316;2023-12-20T05:11:03;2.40;;;1.80;;
20814;SDS011;10568;48.176;16.316;2023-12-20T05:13:30;2.13;;;1.60;;
20814;SDS011;10568;48.176;16.316;2023-12-20T05:15:55;2.47;;;1.73;;
20814;SDS011;10568;48.176;16.316;2023-12-20T05:18:21;3.43;;;2.07;;
20814;SDS011;10568;48.176;16.316;2023-12-20T05:20:48;1.73;;;1.40;;
20814;SDS011;10568;48.176;16.316;2023-12-20T05:23:17;2.23;;;1.77;;
20814;SDS011;10568;48.176;16.316;2023-12-20T05:25:43;2.60;;;1.97;;
20814;SDS011;10568;48.176;16.316;2023-12-20T05:28:08;2.53;;;1.60;;
20814;SDS011;10568;48.176;16.316;2023-12-20T05:30:34;2.63;;;1.80;;
20814;SDS011;10568;48.176;16.316;2023-12-20T05:33:00;2.60;;;1.80;;
20814;SDS011;10568;48.176;16.316;2023-12-20T05:35:25;2.20;;;1.80;;
20814;SDS011;10568;48.176;16.316;2023-12-20T05:37:51;3.70;;;2.00;;
20814;SDS011;10568;48.176;16.316;2023-12-20T05:40:17;5.73;;;3.60;;
20814;SDS011;10568;48.176;16.316;2023-12-20T05:42:42;7.57;;;5.13;;
20814;SDS011;10568;48.176;16.316;2023-12-20T05:45:09;3.90;;;2.53;;
20814;SDS011;10568;48.176;16.316;2023-12-20T05:47:35;6.70;;;4.33;;
20814;SDS011;10568;48.176;16.316;2023-12-20T05:50:01;4.30;;;2.80;;
20814;SDS011;10568;48.176;16.316;2023-12-20T05:52:27;3.23;;;1.77;;
20814;SDS011;10568;48.176;16.316;2023-12-20T05:54:52;2.77;;;1.83;;
20814;SDS011;10568;48.176;16.316;2023-12-20T05:57:18;4.47;;;2.20;;
20814;SDS011;10568;48.176;16.316;2023-12-20T05:59:44;3.03;;;1.97;;
20814;SDS011;10568;48.176;16.316;2023-12-20T06:02:09;2.77;;;1.90;;
20814;SDS011;10568;48.176;16.316;2023-12-20T06:04:35;3.37;;;2.07;;
20814;SDS011;10568;48.176;16.316;2023-12-20T06:07:01;3.67;;;1.87;;
20814;SDS011;10568;48.176;16.316;2023-12-20T06:09:28;2.90;;;1.70;;
20814;SDS011;10568;48.176;16.316;2023-12-20T06:11:54;2.60;;;1.87;;
20814;SDS011;10568;48.176;16.316;2023-12-20T06:14:19;2.57;;;1.60;;
20814;SDS011;10568;48.176;16.316;2023-12-20T06:16:45;2.00;;;1.53;;
20814;SDS011;10568;48.176;16.316;2023-12-20T06:19:11;3.13;;;1.87;;
20814;SDS011;10568;48.176;16.316;2023-12-20T06:21:37;3.40;;;2.30;;
20814;SDS011;10568;48.176;16.316;2023-12-20T06:24:03;2.67;;;2.17;;
20814;SDS011;10568;48.176;16.316;2023-12-20T06:26:29;2.97;;;1.80;;
20814;SDS011;10568;48.176;16.316;2023-12-20T06:28:54;2.20;;;1.70;;
20814;SDS011;10568;48.176;16.316;2023-12-20T06:31:20;2.57;;;1.60;;
20814;SDS011;10568;48.176;16.316;2023-12-20T06:33:46;1.57;;;1.40;;
20814;SDS011;10568;48.176;16.316;2023-12-20T06:36:12;3.80;;;2.10;;
20814;SDS011;10568;48.176;16.316;2023-12-20T06:38:38;2.50;;;1.83;;
20814;SDS011;10568;48.176;16.316;2023-12-20T06:41:04;3.50;;;1.50;;
20814;SDS011;10568;48.176;16.316;2023-12-20T06:43:30;2.10;;;1.30;;
20814;SDS011;10568;48.176;16.316;2023-12-20T06:45:57;3.07;;;1.80;;
20814;SDS011;10568;48.176;16.316;2023-12-20T06:48:23;3.00;;;1.60;;
20814;SDS011;10568;48.176;16.316;2023-12-20T06:50:49;1.80;;;1.43;;
20814;SDS011;10568;48.176;16.316;2023-12-20T06:53:14;3.03;;;1.67;;
20814;SDS011;10568;48.176;16.316;2023-12-20T06:55:40;2.57;;;1.70;;
20814;SDS011;10568;48.176;16.316;2023-12-20T06:58:06;2.63;;;1.73;;
20814;SDS011;10568;48.176;16.316;2023-12-20T07:00:32;1.93;;;1.50;;
20814;SDS011;10568;48.176;16.316;2023-12-20T07:02:57;2.67;;;1.40;;
20814;SDS011;10568;48.176;16.316;2023-12-20T07:05:23;2.37;;;1.47;;
20814;SDS011;10568;48.176;16.316;2023-12-20T07:07:49;2.70;;;1.47;;
20814;SDS011;10568;48.176;16.316;2023-12-20T07:10:15;1.83;;;0.90;;
20814;SDS011;10568;48.176;16.316;2023-12-20T07:12:40;2.17;;;1.77;;
20814;SDS011;10568;48.176;16.316;2023-12-20T07:15:06;2.97;;;1.73;;
20814;SDS011;10568;48.176;16.316;2023-12-20T07:17:38;3.43;;;1.83;;
20814;SDS011;10568;48.176;16.316;2023-12-20T07:20:04;6.23;;;1.87;;
20814;SDS011;10568;48.176;16.316;2023-12-20T07:22:33;2.47;;;1.63;;
20814;SDS011;10568;48.176;16.316;2023-12-20T07:24:59;4.73;;;1.83;;
20814;SDS011;10568;48.176;16.316;2023-12-20T07:27:25;3.10;;;1.90;;
20814;SDS011;10568;48.176;16.316;2023-12-20T07:29:51;3.57;;;2.10;;
20814;SDS011;10568;48.176;16.316;2023-12-20T07:32:17;3.00;;;1.70;;
20814;SDS011;10568;48.176;16.316;2023-12-20T07:34:43;3.90;;;1.83;;
20814;SDS011;10568;48.176;16.316;2023-12-20T07:37:09;3.33;;;2.20;;
20814;SDS011;10568;48.176;16.316;2023-12-20T07:39:37;2.97;;;1.80;;
20814;SDS011;10568;48.176;16.316;2023-12-20T07:42:05;3.10;;;1.87;;
20814;SDS011;10568;48.176;16.316;2023-12-20T07:44:30;3.37;;;1.80;;
20814;SDS011;10568;48.176;16.316;2023-12-20T07:46:56;2.10;;;1.60;;
20814;SDS011;10568;48.176;16.316;2023-12-20T07:49:23;3.53;;;1.90;;
20814;SDS011;10568;48.176;16.316;2023-12-20T07:51:49;4.10;;;1.90;;
20814;SDS011;10568;48.176;16.316;2023-12-20T07:54:15;3.03;;;1.67;;
20814;SDS011;10568;48.176;16.316;2023-12-20T07:56:41;2.77;;;1.90;;
20814;SDS011;10568;48.176;16.316;2023-12-20T07:59:07;2.27;;;1.80;;
20814;SDS011;10568;48.176;16.316;2023-12-20T08:01:33;3.00;;;1.67;;
20814;SDS011;10568;48.176;16.316;2023-12-20T08:03:58;3.63;;;2.00;;
20814;SDS011;10568;48.176;16.316;2023-12-20T08:06:24;5.63;;;2.00;;
20814;SDS011;10568;48.176;16.316;2023-12-20T08:08:50;3.03;;;1.97;;
20814;SDS011;10568;48.176;16.316;2023-12-20T08:11:16;3.43;;;1.90;;
20814;SDS011;10568;48.176;16.316;2023-12-20T08:13:42;2.43;;;2.13;;
20814;SDS011;10568;48.176;16.316;2023-12-20T08:16:08;3.93;;;2.30;;
20814;SDS011;10568;48.176;16.316;2023-12-20T08:18:34;2.73;;;2.00;;
20814;SDS011;10568;48.176;16.316;2023-12-20T08:21:00;4.00;;;2.20;;
20814;SDS011;10568;48.176;16.316;2023-12-20T08:23:26;4.70;;;2.27;;
20814;SDS011;10568;48.176;16.316;2023-12-20T08:25:52;2.97;;;2.07;;
20814;SDS011;10568;48.176;16.316;2023-12-20T08:28:18;3.37;;;2.03;;
20814;SDS011;10568;48.176;16.316;2023-12-20T08:30:55;3.10;;;1.93;;
20814;SDS011;10568;48.176;16.316;2023-12-20T08:33:21;2.87;;;1.80;;
20814;SDS011;10568;48.176;16.316;2023-12-20T08:35:47;2.77;;;1.80;;
20814;SDS011;10568;48.176;16.316;2023-12-20T08:38:12;3.07;;;2.33;;
20814;SDS011;10568;48.176;16.316;2023-12-20T08:40:39;3.97;;;2.00;;
20814;SDS011;10568;48.176;16.316;2023-12-20T08:43:05;2.90;;;2.03;;
20814;SDS011;10568;48.176;16.316;2023-12-20T08:45:30;3.70;;;2.07;;
20814;SDS011;10568;48.176;16.316;2023-12-20T08:47:56;3.03;;;2.33;;
20814;SDS011;10568;48.176;16.316;2023-12-20T08:50:22;3.07;;;1.83;;
20814;SDS011;10568;48.176;16.316;2023-12-20T08:52:47;2.53;;;1.70;;
20814;SDS011;10568;48.176;16.316;2023-12-20T08:55:13;5.10;;;2.10;;
20814;SDS011;10568;48.176;16.316;2023-12-20T08:57:41;2.23;;;1.53;;
20814;SDS011;10568;48.176;16.316;2023-12-20T09:00:07;3.90;;;2.20;;
20814;SDS011;10568;48.176;16.316;2023-12-20T09:02:33;4.43;;;2.03;;
20814;SDS011;10568;48.176;16.316;2023-12-20T09:05:01;3.07;;;2.03;;
20814;SDS011;10568;48.176;16.316;2023-12-20T09:07:28;5.13;;;2.00;;
20814;SDS011;10568;48.176;16.316;2023-12-20T09:09:56;3.13;;;1.90;;
20814;SDS011;10568;48.176;16.316;2023-12-20T09:12:21;2.93;;;1.90;;
20814;SDS011;10568;48.176;16.316;2023-12-20T09:14:47;3.37;;;1.90;;
20814;SDS011;10568;48.176;16.316;2023-12-20T09:17:14;5.43;;;1.40;;
20814;SDS011;10568;48.176;16.316;2023-12-20T09:19:41;2.80;;;1.53;;
20814;SDS011;10568;48.176;16.316;2023-12-20T09:22:10;3.33;;;1.57;;
20814;SDS011;10568;48.176;16.316;2023-12-20T09:24:36;3.00;;;1.40;;
20814;SDS011;10568;48.176;16.316;2023-12-20T09:27:08;1.53;;;0.97;;
20814;SDS011;10568;48.176;16.316;2023-12-20T09:29:34;1.00;;;0.90;;
20814;SDS011;10568;48.176;16.316;2023-12-20T09:32:00;1.87;;;1.10;;
20814;SDS011;10568;48.176;16.316;2023-12-20T09:34:25;1.30;;;1.03;;
20814;SDS011;10568;48.176;16.316;2023-12-20T09:36:52;1.80;;;1.17;;
20814;SDS011;10568;48.176;16.316;2023-12-20T09:39:18;1.90;;;1.20;;
20814;SDS011;10568;48.176;16.316;2023-12-20T09:41:45;2.77;;;1.20;;
20814;SDS011;10568;48.176;16.316;2023-12-20T09:44:16;0.97;;;0.90;;
20814;SDS011;10568;48.176;16.316;2023-12-20T09:46:45;1.20;;;0.80;;
20814;SDS011;10568;48.176;16.316;2023-12-20T09:49:33;2.07;;;0.90;;
20814;SDS011;10568;48.176;16.316;2023-12-20T09:52:02;3.23;;;1.00;;
20814;SDS011;10568;48.176;16.316;2023-12-20T09:54:31;1.67;;;0.90;;
20814;SDS011;10568;48.176;16.316;2023-12-20T09:57:06;1.10;;;1.00;;
20814;SDS011;10568;48.176;16.316;2023-12-20T09:59:32;1.47;;;0.83;;
20814;SDS011;10568;48.176;16.316;2023-12-20T10:01:58;1.60;;;1.07;;
20814;SDS011;10568;48.176;16.316;2023-12-20T10:04:26;1.73;;;1.27;;
20814;SDS011;10568;48.176;16.316;2023-12-20T10:06:53;1.90;;;1.23;;
20814;SDS011;10568;48.176;16.316;2023-12-20T10:09:18;1.70;;;1.27;;
20814;SDS011;10568;48.176;16.316;2023-12-20T10:11:44;2.83;;;1.20;;
20814;SDS011;10568;48.176;16.316;2023-12-20T10:14:10;1.20;;;1.10;;
20814;SDS011;10568;48.176;16.316;2023-12-20T10:16:36;1.30;;;1.20;;
20814;SDS011;10568;48.176;16.316;2023-12-20T10:19:01;1.63;;;1.07;;
20814;SDS011;10568;48.176;16.316;2023-12-20T10:21:27;1.67;;;1.30;;
20814;SDS011;10568;48.176;16.316;2023-12-20T10:23:53;1.40;;;1.10;;
20814;SDS011;10568;48.176;16.316;2023-12-20T10:26:23;1.50;;;1.17;;
20814;SDS011;10568;48.176;16.316;2023-12-20T10:28:53;1.27;;;1.07;;
20814;SDS011;10568;48.176;16.316;2023-12-20T10:31:32;1.00;;;0.83;;
20814;SDS011;10568;48.176;16.316;2023-12-20T10:33:59;1.13;;;0.90;;
20814;SDS011;10568;48.176;16.316;2023-12-20T10:36:26;1.17;;;0.90;;
20814;SDS011;10568;48.176;16.316;2023-12-20T10:38:54;0.77;;;0.70;;
20814;SDS011;10568;48.176;16.316;2023-12-20T10:41:26;0.70;;;0.70;;
20814;SDS011;10568;48.176;16.316;2023-12-20T10:43:59;1.07;;;0.90;;
20814;SDS011;10568;48.176;16.316;2023-12-20T10:46:30;0.80;;;0.73;;
20814;SDS011;10568;48.176;16.316;2023-12-20T10:48:59;1.10;;;0.93;;
20814;SDS011;10568;48.176;16.316;2023-12-20T10:51:30;0.83;;;0.83;;
20814;SDS011;10568;48.176;16.316;2023-12-20T10:54:05;1.63;;;1.20;;
20814;SDS011;10568;48.176;16.316;2023-12-20T10:56:32;1.03;;;0.90;;
20814;SDS011;10568;48.176;16.316;2023-12-20T10:59:01;2.30;;;1.03;;
20814;SDS011;10568;48.176;16.316;2023-12-20T11:01:30;1.53;;;1.10;;
20814;SDS011;10568;48.176;16.316;2023-12-20T11:03:56;1.13;;;0.90;;
20814;SDS011;10568;48.176;16.316;2023-12-20T11:09:22;0.87;;;0.87;;
20814;SDS011;10568;48.176;16.316;2023-12-20T11:14:48;1.00;;;0.90;;
20814;SDS011;10568;48.176;16.316;2023-12-20T11:17:15;1.13;;;1.00;;
20814;SDS011;10568;48.176;16.316;2023-12-20T11:20:24;0.97;;;0.77;;
20814;SDS011;10568;48.176;16.316;2023-12-20T11:22:31;1.97;;;0.90;;
20814;SDS011;10568;48.176;16.316;2023-12-20T11:25:00;1.50;;;1.00;;
20814;SDS011;10568;48.176;16.316;2023-12-20T11:30:45;0.43;;;0.43;;
20814;SDS011;10568;48.176;16.316;2023-12-20T11:33:15;1.00;;;0.90;;
20814;SDS011;10568;48.176;16.316;2023-12-20T11:35:41;0.77;;;0.77;;
20814;SDS011;10568;48.176;16.316;2023-12-20T11:38:09;2.27;;;0.80;;
20814;SDS011;10568;48.176;16.316;2023-12-20T11:40:35;0.57;;;0.57;;
20814;SDS011;10568;48.176;16.316;2023-12-20T11:43:02;0.90;;;0.60;;
20814;SDS011;10568;48.176;16.316;2023-12-20T11:45:28;0.67;;;0.63;;
20814;SDS011;10568;48.176;16.316;2023-12-20T11:48:03;0.80;;;0.80;;
20814;SDS011;10568;48.176;16.316;2023-12-20T11:50:29;1.70;;;0.77;;
20814;SDS011;10568;48.176;16.316;2023-12-20T11:52:55;0.53;;;0.50;;
20814;SDS011;10568;48.176;16.316;2023-12-20T11:55:21;0.93;;;0.57;;
20814;SDS011;10568;48.176;16.316;2023-12-20T11:57:49;1.73;;;0.90;;
20814;SDS011;10568;48.176;16.316;2023-12-20T12:00:15;0.90;;;0.60;;
20814;SDS011;10568;48.176;16.316;2023-12-20T12:02:41;0.50;;;0.43;;
20814;SDS011;10568;48.176;16.316;2023-12-20T12:05:07;1.00;;;0.83;;
20814;SDS011;10568;48.176;16.316;2023-12-20T12:07:36;1.73;;;0.60;;
20814;SDS011;10568;48.176;16.316;2023-12-20T12:10:02;0.93;;;0.70;;
20814;SDS011;10568;48.176;16.316;2023-12-20T12:12:28;0.60;;;0.60;;
20814;SDS011;10568;48.176;16.316;2023-12-20T12:14:55;0.60;;;0.60;;
20814;SDS011;10568;48.176;16.316;2023-12-20T12:17:22;0.70;;;0.50;;
20814;SDS011;10568;48.176;16.316;2023-12-20T12:19:48;0.80;;;0.60;;
20814;SDS011;10568;48.176;16.316;2023-12-20T12:22:14;0.97;;;0.70;;
20814;SDS011;10568;48.176;16.316;2023-12-20T12:24:45;0.63;;;0.50;;
20814;SDS011;10568;48.176;16.316;2023-12-20T12:27:12;0.60;;;0.60;;
20814;SDS011;10568;48.176;16.316;2023-12-20T12:29:38;0.60;;;0.60;;
20814;SDS011;10568;48.176;16.316;2023-12-20T12:32:05;0.80;;;0.60;;
20814;SDS011;10568;48.176;16.316;2023-12-20T12:34:32;0.70;;;0.60;;
20814;SDS011;10568;48.176;16.316;2023-12-20T12:37:01;0.50;;;0.50;;
20814;SDS011;10568;48.176;16.316;2023-12-20T12:39:29;1.03;;;0.50;;
20814;SDS011;10568;48.176;16.316;2023-12-20T12:41:55;0.97;;;0.70;;
20814;SDS011;10568;48.176;16.316;2023-12-20T12:44:22;1.00;;;0.90;;
20814;SDS011;10568;48.176;16.316;2023-12-20T12:46:50;0.83;;;0.60;;
20814;SDS011;10568;48.176;16.316;2023-12-20T12:49:24;0.70;;;0.60;;
20814;SDS011;10568;48.176;16.316;2023-12-20T12:51:50;1.10;;;0.70;;
20814;SDS011;10568;48.176;16.316;2023-12-20T12:54:16;0.97;;;0.67;;
20814;SDS011;10568;48.176;16.316;2023-12-20T12:56:43;0.50;;;0.50;;
20814;SDS011;10568;48.176;16.316;2023-12-20T12:59:09;1.10;;;0.70;;
20814;SDS011;10568;48.176;16.316;2023-12-20T13:01:36;1.00;;;0.80;;
20814;SDS011;10568;48.176;16.316;2023-12-20T13:04:01;0.60;;;0.60;;
20814;SDS011;10568;48.176;16.316;2023-12-20T13:06:29;0.97;;;0.70;;
20814;SDS011;10568;48.176;16.316;2023-12-20T13:08:54;1.23;;;0.70;;
20814;SDS011;10568;48.176;16.316;2023-12-20T13:11:20;0.80;;;0.70;;
20814;SDS011;10568;48.176;16.316;2023-12-20T13:13:46;0.60;;;0.60;;
20814;SDS011;10568;48.176;16.316;2023-12-20T13:16:12;0.60;;;0.60;;
20814;SDS011;10568;48.176;16.316;2023-12-20T13:18:38;0.73;;;0.57;;
20814;SDS011;10568;48.176;16.316;2023-12-20T13:21:07;0.60;;;0.60;;
20814;SDS011;10568;48.176;16.316;2023-12-20T13:23:34;0.83;;;0.80;;
20814;SDS011;10568;48.176;16.316;2023-12-20T13:25:59;0.60;;;0.50;;
20814;SDS011;10568;48.176;16.316;2023-12-20T13:28:25;0.87;;;0.77;;
20814;SDS011;10568;48.176;16.316;2023-12-20T13:30:51;0.80;;;0.70;;
20814;SDS011;10568;48.176;16.316;2023-12-20T13:33:17;0.60;;;0.60;;
20814;SDS011;10568;48.176;16.316;2023-12-20T13:35:43;0.70;;;0.70;;
20814;SDS011;10568;48.176;16.316;2023-12-20T13:38:08;1.17;;;0.90;;
20814;SDS011;10568;48.176;16.316;2023-12-20T13:40:34;0.70;;;0.60;;
20814;SDS011;10568;48.176;16.316;2023-12-20T13:43:00;1.17;;;0.90;;
20814;SDS011;10568;48.176;16.316;2023-12-20T13:45:28;0.60;;;0.60;;
20814;SDS011;10568;48.176;16.316;2023-12-20T13:47:53;0.93;;;0.80;;
20814;SDS011;10568;48.176;16.316;2023-12-20T13:50:19;0.80;;;0.50;;
20814;SDS011;10568;48.176;16.316;2023-12-20T13:52:45;0.80;;;0.63;;
20814;SDS011;10568;48.176;16.316;2023-12-20T13:55:11;0.73;;;0.73;;
20814;SDS011;10568;48.176;16.316;2023-12-20T13:57:37;0.80;;;0.80;;
20814;SDS011;10568;48.176;16.316;2023-12-20T14:00:03;0.97;;;0.50;;
20814;SDS011;10568;48.176;16.316;2023-12-20T14:02:30;0.80;;;0.70;;
20814;SDS011;10568;48.176;16.316;2023-12-20T14:04:55;0.67;;;0.60;;
20814;SDS011;10568;48.176;16.316;2023-12-20T14:07:21;0.57;;;0.53;;
20814;SDS011;10568;48.176;16.316;2023-12-20T14:09:47;0.60;;;0.60;;
20814;SDS011;10568;48.176;16.316;2023-12-20T14:12:13;0.40;;;0.40;;
20814;SDS011;10568;48.176;16.316;2023-12-20T14:14:39;1.17;;;0.70;;
20814;SDS011;10568;48.176;16.316;2023-12-20T14:17:05;0.63;;;0.60;;
20814;SDS011;10568;48.176;16.316;2023-12-20T14:19:34;0.67;;;0.67;;
20814;SDS011;10568;48.176;16.316;2023-12-20T14:22:00;0.90;;;0.60;;
20814;SDS011;10568;48.176;16.316;2023-12-20T14:24:26;0.60;;;0.60;;
20814;SDS011;10568;48.176;16.316;2023-12-20T14:26:52;0.40;;;0.40;;
20814;SDS011;10568;48.176;16.316;2023-12-20T14:29:18;0.90;;;0.67;;
20814;SDS011;10568;48.176;16.316;2023-12-20T14:31:44;0.83;;;0.40;;
20814;SDS011;10568;48.176;16.316;2023-12-20T14:34:10;0.63;;;0.53;;
20814;SDS011;10568;48.176;16.316;2023-12-20T14:36:36;0.50;;;0.50;;
20814;SDS011;10568;48.176;16.316;2023-12-20T14:39:02;0.60;;;0.60;;
20814;SDS011;10568;48.176;16.316;2023-12-20T14:41:29;0.70;;;0.50;;